createdAt,value
2018-10-05T00:00:20.330Z,82.10
2018-10-05T00:02:49.340Z,82.10
2018-10-05T00:05:18.383Z,82.30
2018-10-05T00:07:47.412Z,82.40
2018-10-05T00:10:16.597Z,82.50
2018-10-05T00:12:45.677Z,82.60
2018-10-05T00:15:14.683Z,82.80
2018-10-05T00:17:43.764Z,83.10
2018-10-05T00:20:12.777Z,83.20
2018-10-05T00:22:41.816Z,83.20
2018-10-05T00:25:10.933Z,83.10
2018-10-05T00:27:39.967Z,83.90
2018-10-05T00:30:09.005Z,83.00
2018-10-05T00:32:38.075Z,83.00
2018-10-05T00:35:07.124Z,82.70
2018-10-05T00:37:37.405Z,82.50
2018-10-05T00:40:06.638Z,82.70
2018-10-05T00:42:35.880Z,82.30
2018-10-05T00:45:05.287Z,82.20
2018-10-05T00:47:34.504Z,82.30
2018-10-05T00:50:03.553Z,82.30
2018-10-05T00:52:32.599Z,82.40
2018-10-05T00:55:01.666Z,82.20
2018-10-05T00:57:30.781Z,82.10
2018-10-05T00:59:59.799Z,82.20
2018-10-05T01:02:28.833Z,81.60
2018-10-05T01:04:57.866Z,81.00
2018-10-05T01:07:26.921Z,80.70
2018-10-05T01:09:55.993Z,80.50
2018-10-05T01:12:25.014Z,80.30
2018-10-05T01:14:54.088Z,80.40
2018-10-05T01:17:23.203Z,80.60
2018-10-05T01:19:52.267Z,81.50
2018-10-05T01:22:21.329Z,80.70
2018-10-05T01:24:50.355Z,80.80
2018-10-05T01:27:19.356Z,80.90
2018-10-05T01:29:48.399Z,81.00
2018-10-05T01:32:17.441Z,81.20
2018-10-05T01:34:46.447Z,82.30
2018-10-05T01:37:15.480Z,81.70
2018-10-05T01:39:44.554Z,81.90
2018-10-05T01:42:13.691Z,82.10
2018-10-05T01:44:42.752Z,82.70
2018-10-05T01:47:11.848Z,83.10
2018-10-05T01:49:41.549Z,83.40
2018-10-05T01:52:11.105Z,83.50
2018-10-05T01:54:40.235Z,83.60
2018-10-05T01:57:09.276Z,83.50
2018-10-05T01:59:38.337Z,83.70
2018-10-05T02:02:08.129Z,83.80
2018-10-05T02:04:37.170Z,83.90
2018-10-05T02:07:06.246Z,83.70
2018-10-05T02:09:35.334Z,83.00
2018-10-05T02:12:04.609Z,83.30
2018-10-05T02:14:33.748Z,83.10
2018-10-05T02:17:02.920Z,82.80
2018-10-05T02:19:31.937Z,82.60
2018-10-05T02:22:01.001Z,82.60
2018-10-05T02:24:30.120Z,82.50
2018-10-05T02:26:59.151Z,82.50
2018-10-05T02:29:28.274Z,82.50
2018-10-05T02:31:57.347Z,82.60
2018-10-05T02:34:26.401Z,82.50
2018-10-05T02:36:55.480Z,82.60
2018-10-05T02:39:24.586Z,82.80
2018-10-05T02:41:53.620Z,82.60
2018-10-05T02:44:22.672Z,82.60
2018-10-05T02:46:51.730Z,82.70
2018-10-05T02:49:20.792Z,82.90
2018-10-05T02:51:49.803Z,83.10
2018-10-05T02:54:18.850Z,83.10
2018-10-05T02:56:47.954Z,83.10
2018-10-05T02:59:16.979Z,83.20
2018-10-05T03:02:03.086Z,83.40
2018-10-05T03:04:32.157Z,83.50
2018-10-05T03:07:01.184Z,83.70
2018-10-05T03:09:30.370Z,83.80
2018-10-05T03:11:59.865Z,84.00
2018-10-05T03:14:29.135Z,84.00
2018-10-05T03:16:58.306Z,84.00
2018-10-05T03:19:27.367Z,84.10
2018-10-05T03:21:56.796Z,84.20
2018-10-05T03:24:25.976Z,84.20
2018-10-05T03:26:55.041Z,84.10
2018-10-05T03:29:24.094Z,84.40
2018-10-05T03:31:53.225Z,84.20
2018-10-05T03:34:22.232Z,84.10
2018-10-05T03:36:51.271Z,84.10
2018-10-05T03:39:20.317Z,84.40
2018-10-05T03:41:49.316Z,84.50
2018-10-05T03:44:18.336Z,84.50
2018-10-05T03:46:47.413Z,84.40
2018-10-05T03:49:16.433Z,84.30
2018-10-05T03:51:45.457Z,84.80
2018-10-05T03:54:14.513Z,83.90
2018-10-05T03:56:43.592Z,83.40
2018-10-05T03:59:12.641Z,83.40
2018-10-05T04:01:41.738Z,83.40
2018-10-05T04:04:11.197Z,83.60
2018-10-05T04:06:40.262Z,83.70
2018-10-05T04:09:10.693Z,83.80
2018-10-05T04:11:39.719Z,83.90
2018-10-05T04:14:08.796Z,84.20
2018-10-05T04:16:38.031Z,84.30
2018-10-05T04:19:07.067Z,84.20
2018-10-05T04:21:36.076Z,84.30
2018-10-05T04:24:05.124Z,84.30
2018-10-05T04:26:34.138Z,84.30
2018-10-05T04:29:03.128Z,84.40
2018-10-05T04:31:33.606Z,84.40
2018-10-05T04:34:02.761Z,84.30
2018-10-05T04:36:31.823Z,84.50
2018-10-05T04:39:00.884Z,84.50
2018-10-05T04:41:29.966Z,84.70
2018-10-05T04:43:58.958Z,84.70
2018-10-05T04:46:27.970Z,84.70
2018-10-05T04:48:56.950Z,84.70
2018-10-05T04:51:26.111Z,84.60
2018-10-05T04:53:55.559Z,84.50
2018-10-05T04:56:24.597Z,84.50
2018-10-05T04:58:53.640Z,84.20
2018-10-05T05:01:22.740Z,84.10
2018-10-05T05:03:51.873Z,84.00
2018-10-05T05:06:21.003Z,84.20
2018-10-05T05:08:50.131Z,84.30
2018-10-05T05:11:19.160Z,84.50
2018-10-05T05:13:48.511Z,84.40
2018-10-05T05:16:17.582Z,85.20
2018-10-05T05:18:46.605Z,84.20
2018-10-05T05:21:15.656Z,84.20
2018-10-05T05:23:45.664Z,84.10
2018-10-05T05:26:14.712Z,84.00
2018-10-05T05:28:43.753Z,84.20
2018-10-05T05:31:12.847Z,84.20
2018-10-05T05:33:42.048Z,84.50
2018-10-05T05:36:10.960Z,85.00
2018-10-05T05:38:40.035Z,85.80
2018-10-05T05:41:09.113Z,84.90
2018-10-05T05:43:38.148Z,84.80
2018-10-05T05:46:08.221Z,84.60
2018-10-05T05:48:37.742Z,84.60
2018-10-05T05:51:07.329Z,84.50
2018-10-05T05:53:37.148Z,84.50
2018-10-05T05:56:06.783Z,84.50
2018-10-05T05:58:37.502Z,85.10
2018-10-05T06:01:08.358Z,86.20
2018-10-05T06:03:39.108Z,87.40
2018-10-05T06:06:08.662Z,87.70
2018-10-05T06:08:38.704Z,88.30
2018-10-05T06:11:08.797Z,87.90
2018-10-05T06:13:38.062Z,88.20
2018-10-05T06:16:07.994Z,87.20
2018-10-05T06:18:37.362Z,86.80
2018-10-05T06:21:06.649Z,86.50
2018-10-05T06:23:35.961Z,85.60
2018-10-05T06:26:05.294Z,84.90
2018-10-05T06:28:34.565Z,84.30
2018-10-05T06:31:03.853Z,83.50
2018-10-05T06:33:33.033Z,83.00
2018-10-05T06:36:02.372Z,82.30
2018-10-05T06:38:32.187Z,81.80
2018-10-05T06:41:01.343Z,81.10
2018-10-05T06:43:30.877Z,79.90
2018-10-05T06:46:00.538Z,78.40
2018-10-05T06:48:29.861Z,78.00
2018-10-05T06:50:59.082Z,75.70
2018-10-05T06:53:28.235Z,75.00
2018-10-05T06:55:57.371Z,73.80
2018-10-05T06:58:26.514Z,73.30
2018-10-05T07:00:55.655Z,72.50
2018-10-05T07:03:25.237Z,71.10
2018-10-05T07:05:55.273Z,70.70
2018-10-05T07:08:24.440Z,70.00
2018-10-05T07:10:54.619Z,69.50
2018-10-05T07:13:24.735Z,68.40
2018-10-05T07:15:55.921Z,67.50
2018-10-05T07:18:25.575Z,66.80
2018-10-05T07:20:54.786Z,65.80
2018-10-05T07:23:24.221Z,65.10
2018-10-05T07:25:53.342Z,64.60
2018-10-05T07:28:22.760Z,63.70
2018-10-05T07:30:51.781Z,62.70
2018-10-05T07:33:20.858Z,61.80
2018-10-05T07:35:50.608Z,60.80
2018-10-05T07:38:19.856Z,60.40
2018-10-05T07:40:49.132Z,60.10
2018-10-05T07:43:18.239Z,59.30
2018-10-05T07:45:47.801Z,58.70
2018-10-05T07:48:17.179Z,58.00
2018-10-05T07:50:47.149Z,57.50
2018-10-05T07:53:16.488Z,57.30
2018-10-05T07:55:45.698Z,56.90
2018-10-05T07:58:15.254Z,57.10
2018-10-05T08:00:44.631Z,56.70
2018-10-05T08:03:13.999Z,56.50
2018-10-05T08:05:43.229Z,56.20
2018-10-05T08:08:12.969Z,55.70
2018-10-05T08:10:42.467Z,55.30
2018-10-05T08:13:11.817Z,55.40
2018-10-05T08:15:41.574Z,54.40
2018-10-05T08:18:10.852Z,54.00
2018-10-05T08:20:40.083Z,53.50
2018-10-05T08:23:09.505Z,53.10
2018-10-05T08:25:38.736Z,53.00
2018-10-05T08:28:07.959Z,52.40
2018-10-05T08:30:37.117Z,52.60
2018-10-05T08:33:06.647Z,52.00
2018-10-05T08:35:35.964Z,52.20
2018-10-05T08:38:05.111Z,52.00
2018-10-05T08:40:34.390Z,51.90
2018-10-05T08:43:04.343Z,51.30
2018-10-05T08:45:33.844Z,50.70
2018-10-05T08:48:02.893Z,50.60
2018-10-05T08:50:31.931Z,50.40
2018-10-05T08:53:01.064Z,50.30
2018-10-05T08:55:30.361Z,49.80
2018-10-05T08:57:59.517Z,49.70
2018-10-05T09:00:28.795Z,49.20
2018-10-05T09:02:57.985Z,49.30
2018-10-05T09:05:27.180Z,48.40
2018-10-05T09:08:01.337Z,48.90
2018-10-05T09:10:30.984Z,48.50
2018-10-05T09:13:00.306Z,47.60
2018-10-05T09:15:29.598Z,48.20
2018-10-05T09:17:59.009Z,48.40
2018-10-05T09:20:28.227Z,49.00
2018-10-05T09:22:57.511Z,49.00
2018-10-05T09:25:26.605Z,49.30
2018-10-05T09:27:55.921Z,49.20
2018-10-05T09:30:25.985Z,48.90
2018-10-05T09:32:55.608Z,48.80
2018-10-05T09:35:25.278Z,47.90
2018-10-05T09:37:55.768Z,47.40
2018-10-05T09:40:25.316Z,47.40
2018-10-05T09:42:55.277Z,48.20
2018-10-05T09:45:27.591Z,47.90
2018-10-05T09:47:57.268Z,48.00
2018-10-05T09:50:26.576Z,48.60
2018-10-05T09:57:53.752Z,48.70
2018-10-05T10:00:28.562Z,49.60
2018-10-05T10:03:00.460Z,49.70
2018-10-05T10:05:29.731Z,49.40
2018-10-05T10:07:59.118Z,49.90
2018-10-05T10:10:28.690Z,49.60
2018-10-05T10:12:58.196Z,49.20
2018-10-05T10:15:28.606Z,49.60
2018-10-05T10:17:57.971Z,49.30
2018-10-05T10:20:27.756Z,49.70
2018-10-05T10:22:57.207Z,49.50
2018-10-05T10:25:26.661Z,49.20
2018-10-05T10:27:55.962Z,49.00
2018-10-05T10:30:25.520Z,48.50
2018-10-05T10:32:55.055Z,50.00
2018-10-05T10:35:24.537Z,49.60
2018-10-05T10:37:53.856Z,48.50
2018-10-05T10:40:23.227Z,48.90
2018-10-05T10:42:53.924Z,49.60
2018-10-05T10:45:23.782Z,49.20
2018-10-05T10:47:53.597Z,48.50
2018-10-05T10:50:23.412Z,48.90
2018-10-05T10:52:53.001Z,48.90
2018-10-05T10:55:22.685Z,48.80
2018-10-05T10:57:51.990Z,48.60
2018-10-05T11:00:23.256Z,48.00
2018-10-05T11:02:52.613Z,47.90
2018-10-05T11:05:21.869Z,47.80
2018-10-05T11:07:51.224Z,47.90
2018-10-05T11:10:21.011Z,48.00
2018-10-05T11:12:50.952Z,48.70
2018-10-05T11:15:21.976Z,48.80
2018-10-05T11:17:51.457Z,48.50
2018-10-05T11:20:22.546Z,49.30
2018-10-05T11:22:52.628Z,48.80
2018-10-05T11:25:22.370Z,48.30
2018-10-05T11:27:52.019Z,48.90
2018-10-05T11:30:22.503Z,48.30
2018-10-05T11:32:52.228Z,48.50
2018-10-05T11:35:21.327Z,48.50
2018-10-05T11:37:50.598Z,49.60
2018-10-05T11:40:20.861Z,48.60
2018-10-05T11:42:50.637Z,48.90
2018-10-05T11:45:19.929Z,49.00
2018-10-05T11:47:49.195Z,49.00
2018-10-05T11:50:18.723Z,48.90
2018-10-05T11:52:48.010Z,49.10
2018-10-05T11:55:17.486Z,49.10
2018-10-05T11:57:46.729Z,49.90
2018-10-05T12:00:18.207Z,49.70
2018-10-05T12:02:48.171Z,49.30
2018-10-05T12:05:17.564Z,49.40
2018-10-05T12:07:46.898Z,49.80
2018-10-05T12:10:16.175Z,50.10
2018-10-05T12:12:45.471Z,50.50
2018-10-05T12:15:14.954Z,51.00
2018-10-05T12:17:44.479Z,50.40
2018-10-05T12:20:14.186Z,50.00
2018-10-05T12:22:43.645Z,50.60
2018-10-05T12:25:13.037Z,50.30
2018-10-05T12:27:42.738Z,50.20
2018-10-05T12:30:12.142Z,49.90
2018-10-05T12:32:41.359Z,49.90
2018-10-05T12:35:10.651Z,49.50
2018-10-05T12:37:40.003Z,50.00
2018-10-05T12:40:09.311Z,50.00
2018-10-05T12:42:38.427Z,49.90
2018-10-05T12:45:07.739Z,48.60
2018-10-05T12:47:37.274Z,48.60
2018-10-05T12:50:07.128Z,49.00
2018-10-05T12:52:36.215Z,48.70
2018-10-05T12:55:05.773Z,48.50
2018-10-05T12:57:35.030Z,49.00
2018-10-05T13:00:04.438Z,48.70
2018-10-05T13:02:33.606Z,48.70
2018-10-05T13:05:03.142Z,48.80
2018-10-05T13:07:32.371Z,49.10
2018-10-05T13:10:01.931Z,48.60
2018-10-05T13:12:31.249Z,48.80
2018-10-05T13:15:00.515Z,48.70
2018-10-05T13:17:29.825Z,48.80
2018-10-05T13:19:59.303Z,48.60
2018-10-05T13:22:28.461Z,47.90
2018-10-05T13:24:57.489Z,48.10
2018-10-05T13:27:26.744Z,48.80
2018-10-05T13:29:56.288Z,48.10
2018-10-05T13:32:25.478Z,48.10
2018-10-05T13:34:54.764Z,48.50
2018-10-05T13:37:24.327Z,49.20
2018-10-05T13:39:53.962Z,48.60
2018-10-05T13:42:23.273Z,48.20
2018-10-05T13:44:52.544Z,48.50
2018-10-05T13:47:22.003Z,48.10
2018-10-05T13:49:51.407Z,48.20
2018-10-05T13:52:21.316Z,48.50
2018-10-05T13:54:50.503Z,47.90
2018-10-05T13:57:19.694Z,47.80
2018-10-05T13:59:49.164Z,47.70
2018-10-05T14:02:18.605Z,48.40
2018-10-05T14:04:47.981Z,47.80
2018-10-05T14:07:17.563Z,48.00
2018-10-05T14:09:47.566Z,48.00
2018-10-05T14:12:17.174Z,48.00
2018-10-05T14:14:46.553Z,47.80
2018-10-05T14:17:15.995Z,47.80
2018-10-05T14:19:45.373Z,48.00
2018-10-05T14:22:14.686Z,47.90
2018-10-05T14:24:44.191Z,48.30
2018-10-05T14:27:13.428Z,48.10
2018-10-05T14:29:42.667Z,47.90
2018-10-05T14:32:12.658Z,48.30
2018-10-05T14:34:42.078Z,47.60
2018-10-05T14:37:11.638Z,47.50
2018-10-05T14:39:41.056Z,47.40
2018-10-05T14:42:10.504Z,48.00
2018-10-05T14:44:39.871Z,47.50
2018-10-05T14:47:09.434Z,47.70
2018-10-05T14:49:38.697Z,47.60
2018-10-05T14:52:08.106Z,47.60
2018-10-05T14:54:37.507Z,48.00
2018-10-05T14:57:06.814Z,48.10
2018-10-05T14:59:36.189Z,47.90
2018-10-05T15:02:06.585Z,48.60
2018-10-05T15:04:35.774Z,47.50
2018-10-05T15:07:12.331Z,48.40
2018-10-05T15:09:41.573Z,48.00
2018-10-05T15:12:10.865Z,48.10
2018-10-05T15:14:40.320Z,48.10
2018-10-05T15:17:09.736Z,48.40
2018-10-05T15:19:39.160Z,48.10
2018-10-05T15:22:08.500Z,48.40
2018-10-05T15:24:38.005Z,48.40
2018-10-05T15:27:08.194Z,48.90
2018-10-05T15:29:37.618Z,48.70
2018-10-05T15:32:06.768Z,48.90
2018-10-05T15:34:36.173Z,48.50
2018-10-05T15:37:05.579Z,48.80
2018-10-05T15:39:34.816Z,49.00
2018-10-05T15:42:04.129Z,49.10
2018-10-05T15:44:36.504Z,48.80
2018-10-05T15:47:14.507Z,48.70
2018-10-05T15:49:44.384Z,48.60
2018-10-05T15:52:13.872Z,48.90
2018-10-05T15:54:43.109Z,49.00
2018-10-05T15:57:12.502Z,49.10
2018-10-05T15:59:42.582Z,49.20
2018-10-05T16:02:11.881Z,49.30
2018-10-05T16:04:41.338Z,49.20
2018-10-05T16:07:10.572Z,49.70
2018-10-05T16:09:39.742Z,49.50
2018-10-05T16:12:09.161Z,49.70
2018-10-05T16:14:39.949Z,49.90
2018-10-05T16:17:09.139Z,49.80
2018-10-05T16:19:38.370Z,49.60
2018-10-05T16:22:08.147Z,50.60
2018-10-05T16:24:40.902Z,50.10
2018-10-05T16:27:11.616Z,50.10
2018-10-05T16:29:40.637Z,50.30
2018-10-05T16:32:10.521Z,50.30
2018-10-05T16:34:40.612Z,50.40
2018-10-05T16:37:11.004Z,50.50
2018-10-05T16:39:40.634Z,50.50
2018-10-05T16:42:09.912Z,50.50
2018-10-05T16:44:40.250Z,50.70
2018-10-05T16:47:09.829Z,51.10
2018-10-05T16:49:39.110Z,51.10
2018-10-05T16:52:08.386Z,51.50
2018-10-05T16:54:37.956Z,51.60
2018-10-05T16:57:07.084Z,51.70
2018-10-05T16:59:36.197Z,51.90
2018-10-05T17:02:05.413Z,52.10
2018-10-05T17:04:35.156Z,52.40
2018-10-05T17:07:05.049Z,52.50
2018-10-05T17:09:34.316Z,52.70
2018-10-05T17:14:38.955Z,52.90
2018-10-05T17:17:08.825Z,53.20
2018-10-05T17:19:38.026Z,53.30
2018-10-05T17:22:07.261Z,53.50
2018-10-05T17:24:37.190Z,53.60
2018-10-05T17:27:06.597Z,53.70
2018-10-05T17:29:36.604Z,53.90
2018-10-05T17:32:06.086Z,54.00
2018-10-05T17:34:35.208Z,53.90
2018-10-05T17:37:04.559Z,54.00
2018-10-05T17:39:34.071Z,54.20
2018-10-05T17:42:03.409Z,54.10
2018-10-05T17:44:32.684Z,54.40
2018-10-05T17:47:02.187Z,54.60
2018-10-05T17:49:31.554Z,54.50
2018-10-05T17:52:00.934Z,54.60
2018-10-05T17:54:30.729Z,54.80
2018-10-05T17:57:00.150Z,55.00
2018-10-05T17:59:29.602Z,55.50
2018-10-05T18:01:58.906Z,55.50
2018-10-05T18:04:28.929Z,55.80
2018-10-05T18:09:39.285Z,56.10
2018-10-05T18:12:09.949Z,56.40
2018-10-05T18:14:40.009Z,56.60
2018-10-05T18:17:09.375Z,56.80
2018-10-05T18:19:38.932Z,57.00
2018-10-05T18:22:08.582Z,57.10
2018-10-05T18:24:38.912Z,57.30
2018-10-05T18:27:08.683Z,57.40
2018-10-05T18:29:38.469Z,57.70
2018-10-05T18:32:08.274Z,57.70
2018-10-05T18:34:38.126Z,58.00
2018-10-05T18:37:07.345Z,58.10
2018-10-05T18:39:36.753Z,58.30
2018-10-05T18:42:06.109Z,58.40
2018-10-05T18:44:35.491Z,58.60
2018-10-05T18:47:04.689Z,58.80
2018-10-05T18:49:33.765Z,59.00
2018-10-05T18:52:03.033Z,59.20
2018-10-05T18:54:33.791Z,59.30
2018-10-05T18:57:19.160Z,59.50
2018-10-05T18:59:48.888Z,59.80
2018-10-05T19:04:54.569Z,60.20
2018-10-05T19:07:23.961Z,60.40
2018-10-05T19:09:53.433Z,60.60
2018-10-05T19:12:24.864Z,61.20
2018-10-05T19:14:55.627Z,61.10
2018-10-05T19:17:25.645Z,61.20
2018-10-05T19:19:55.289Z,61.40
2018-10-05T19:22:25.252Z,61.50
2018-10-05T19:24:54.452Z,61.90
2018-10-05T19:27:23.784Z,62.10
2018-10-05T19:29:54.351Z,62.30
2018-10-05T19:32:23.808Z,62.60
2018-10-05T19:34:54.668Z,62.60
2018-10-05T19:37:24.422Z,62.80
2018-10-05T19:39:53.882Z,63.00
2018-10-05T19:42:23.435Z,63.10
2018-10-05T19:44:56.099Z,63.20
2018-10-05T19:47:27.443Z,63.30
2018-10-05T19:49:57.475Z,63.50
2018-10-05T19:52:26.919Z,63.60
2018-10-05T19:54:58.358Z,63.60
2018-10-05T19:57:27.831Z,63.90
2018-10-05T19:59:56.971Z,64.00
2018-10-05T20:02:27.420Z,64.20
2018-10-05T20:04:56.561Z,64.30
2018-10-05T20:07:25.843Z,64.20
2018-10-05T20:09:56.146Z,64.50
2018-10-05T20:12:25.461Z,64.50
2018-10-05T20:14:58.271Z,64.70
2018-10-05T20:17:27.730Z,64.90
2018-10-05T20:19:59.128Z,65.20
2018-10-05T20:22:28.207Z,65.30
2018-10-05T20:24:57.296Z,65.20
2018-10-05T20:27:26.559Z,65.40
2018-10-05T20:29:55.804Z,65.40
2018-10-05T20:32:26.177Z,65.40
2018-10-05T20:34:55.264Z,65.60
2018-10-05T20:37:24.556Z,65.70
2018-10-05T20:39:54.057Z,65.80
2018-10-05T20:42:23.232Z,65.90
2018-10-05T20:44:52.445Z,66.00
2018-10-05T20:47:22.932Z,66.30
2018-10-05T20:49:52.482Z,66.50
2018-10-05T20:52:21.596Z,66.50
2018-10-05T20:54:51.140Z,66.80
2018-10-05T20:57:20.372Z,67.00
2018-10-05T20:59:49.853Z,67.20
2018-10-05T21:02:19.238Z,67.20
2018-10-05T21:04:48.569Z,67.40
2018-10-05T21:07:17.732Z,67.70
2018-10-05T21:09:47.092Z,67.70
2018-10-05T21:12:16.237Z,68.10
2018-10-05T21:14:45.688Z,68.40
2018-10-05T21:17:16.407Z,68.60
2018-10-05T21:19:45.881Z,68.70
2018-10-05T21:22:15.521Z,68.90
2018-10-05T21:24:45.047Z,68.90
2018-10-05T21:27:20.804Z,69.10
2018-10-05T21:29:50.325Z,69.30
2018-10-05T21:32:20.715Z,69.30
2018-10-05T21:34:50.022Z,69.30
2018-10-05T21:37:20.610Z,69.40
2018-10-05T21:39:51.508Z,69.60
2018-10-05T21:42:20.845Z,69.90
2018-10-05T21:44:49.994Z,70.00
2018-10-05T21:47:19.101Z,70.00
2018-10-05T21:49:48.485Z,70.00
2018-10-05T21:52:18.068Z,70.40
2018-10-05T21:54:47.890Z,70.70
2018-10-05T21:57:17.370Z,70.80
2018-10-05T21:59:47.693Z,70.90
2018-10-05T22:02:20.320Z,70.90
2018-10-05T22:04:50.030Z,71.00
2018-10-05T22:07:19.529Z,71.10
2018-10-05T22:09:48.949Z,71.10
2018-10-05T22:12:18.237Z,71.30
2018-10-05T22:14:47.365Z,71.20
2018-10-05T22:17:17.266Z,71.20
2018-10-05T22:19:46.573Z,71.10
2018-10-05T22:22:15.832Z,71.20
2018-10-05T22:24:45.052Z,71.10
2018-10-05T22:27:16.751Z,71.20
2018-10-05T22:29:52.751Z,71.40
2018-10-05T22:32:22.219Z,71.40
2018-10-05T22:34:52.249Z,71.60
2018-10-05T22:37:21.486Z,71.60
2018-10-05T22:39:50.840Z,71.80
2018-10-05T22:42:20.584Z,72.00
2018-10-05T22:44:49.677Z,72.20
2018-10-05T22:47:18.755Z,72.30
2018-10-05T22:49:47.935Z,72.20
2018-10-05T22:52:17.539Z,72.40
2018-10-05T22:54:46.687Z,72.50
2018-10-05T22:57:15.804Z,72.60
2018-10-05T22:59:45.153Z,72.60
2018-10-05T23:02:14.260Z,73.10
2018-10-05T23:04:49.970Z,73.10
2018-10-05T23:07:19.051Z,73.30
2018-10-05T23:09:48.061Z,73.50
2018-10-05T23:12:17.122Z,73.60
2018-10-05T23:14:46.220Z,73.60
2018-10-05T23:17:15.576Z,73.90
2018-10-05T23:19:44.818Z,73.90
2018-10-05T23:22:14.201Z,74.40
2018-10-05T23:24:43.505Z,74.20
2018-10-05T23:27:12.817Z,74.30
2018-10-05T23:29:42.541Z,74.40
2018-10-05T23:32:12.014Z,74.20
2018-10-05T23:34:41.363Z,74.30
2018-10-05T23:37:12.062Z,74.40
2018-10-05T23:39:41.212Z,74.60
2018-10-05T23:42:11.052Z,75.00
2018-10-05T23:44:40.386Z,75.40
2018-10-05T23:47:09.610Z,75.40
2018-10-05T23:49:39.150Z,75.70
2018-10-05T23:52:37.698Z,76.10
2018-10-05T23:55:06.999Z,76.30
2018-10-05T23:57:36.948Z,76.50
